sensor_id;sensor_type;location;lat;lon;timestamp;P1;durP1;ratioP1;P2;durP2;ratioP2
68140;SDS011;54941;52.220;104.306;2023-03-26T00:01:25;4.28;;;2.40;;
68140;SDS011;54941;52.220;104.306;2023-03-26T00:03:52;7.72;;;2.95;;
68140;SDS011;54941;52.220;104.306;2023-03-26T00:06:20;3.22;;;1.63;;
68140;SDS011;54941;52.220;104.306;2023-03-26T00:08:48;2.72;;;1.30;;
68140;SDS011;54941;52.220;104.306;2023-03-26T00:11:15;3.30;;;1.52;;
68140;SDS011;54941;52.220;104.306;2023-03-26T00:13:43;5.95;;;1.73;;
68140;SDS011;54941;52.220;104.306;2023-03-26T00:16:10;5.15;;;1.75;;
68140;SDS011;54941;52.220;104.306;2023-03-26T00:18:38;4.57;;;2.30;;
68140;SDS011;54941;52.220;104.306;2023-03-26T00:21:05;8.68;;;2.90;;
68140;SDS011;54941;52.220;104.306;2023-03-26T00:23:33;4.55;;;1.92;;
68140;SDS011;54941;52.220;104.306;2023-03-26T00:26:00;7.45;;;2.47;;
68140;SDS011;54941;52.220;104.306;2023-03-26T00:28:27;6.50;;;3.00;;
68140;SDS011;54941;52.220;104.306;2023-03-26T00:30:56;6.72;;;2.90;;
68140;SDS011;54941;52.220;104.306;2023-03-26T00:33:24;14.32;;;6.10;;
68140;SDS011;54941;52.220;104.306;2023-03-26T00:35:53;14.57;;;6.70;;
68140;SDS011;54941;52.220;104.306;2023-03-26T00:38:21;15.90;;;7.50;;
68140;SDS011;54941;52.220;104.306;2023-03-26T00:40:47;15.63;;;7.25;;
68140;SDS011;54941;52.220;104.306;2023-03-26T00:43:14;14.48;;;5.82;;
68140;SDS011;54941;52.220;104.306;2023-03-26T00:45:40;12.20;;;5.35;;
68140;SDS011;54941;52.220;104.306;2023-03-26T00:48:07;11.70;;;5.15;;
68140;SDS011;54941;52.220;104.306;2023-03-26T00:50:33;8.05;;;4.05;;
68140;SDS011;54941;52.220;104.306;2023-03-26T00:53:01;7.20;;;3.80;;
68140;SDS011;54941;52.220;104.306;2023-03-26T00:55:27;8.27;;;2.95;;
68140;SDS011;54941;52.220;104.306;2023-03-26T00:57:54;6.80;;;2.60;;
68140;SDS011;54941;52.220;104.306;2023-03-26T01:00:20;6.22;;;2.08;;
68140;SDS011;54941;52.220;104.306;2023-03-26T01:02:53;4.63;;;1.80;;
68140;SDS011;54941;52.220;104.306;2023-03-26T01:08:11;6.00;;;2.00;;
68140;SDS011;54941;52.220;104.306;2023-03-26T01:10:42;4.88;;;1.90;;
68140;SDS011;54941;52.220;104.306;2023-03-26T01:13:10;4.65;;;1.80;;
68140;SDS011;54941;52.220;104.306;2023-03-26T01:15:36;3.92;;;2.08;;
68140;SDS011;54941;52.220;104.306;2023-03-26T01:18:02;4.63;;;2.33;;
68140;SDS011;54941;52.220;104.306;2023-03-26T01:20:29;5.18;;;2.47;;
68140;SDS011;54941;52.220;104.306;2023-03-26T01:23:00;5.68;;;2.22;;
68140;SDS011;54941;52.220;104.306;2023-03-26T01:25:31;5.07;;;2.30;;
68140;SDS011;54941;52.220;104.306;2023-03-26T01:28:05;6.47;;;2.80;;
68140;SDS011;54941;52.220;104.306;2023-03-26T01:30:35;5.05;;;2.65;;
68140;SDS011;54941;52.220;104.306;2023-03-26T01:33:05;6.72;;;2.80;;
68140;SDS011;54941;52.220;104.306;2023-03-26T01:35:40;7.25;;;2.83;;
68140;SDS011;54941;52.220;104.306;2023-03-26T01:38:13;16.88;;;6.38;;
68140;SDS011;54941;52.220;104.306;2023-03-26T01:40:50;15.95;;;6.43;;
68140;SDS011;54941;52.220;104.306;2023-03-26T01:43:25;15.73;;;5.68;;
68140;SDS011;54941;52.220;104.306;2023-03-26T01:45:59;14.15;;;6.07;;
68140;SDS011;54941;52.220;104.306;2023-03-26T01:48:32;58.47;;;20.80;;
68140;SDS011;54941;52.220;104.306;2023-03-26T01:51:01;73.97;;;27.75;;
68140;SDS011;54941;52.220;104.306;2023-03-26T01:53:27;36.75;;;13.98;;
68140;SDS011;54941;52.220;104.306;2023-03-26T01:55:58;10.85;;;4.43;;
68140;SDS011;54941;52.220;104.306;2023-03-26T01:58:34;9.65;;;4.10;;
68140;SDS011;54941;52.220;104.306;2023-03-26T02:01:06;18.02;;;5.28;;
68140;SDS011;54941;52.220;104.306;2023-03-26T02:03:43;11.20;;;4.10;;
68140;SDS011;54941;52.220;104.306;2023-03-26T02:06:15;9.60;;;3.70;;
68140;SDS011;54941;52.220;104.306;2023-03-26T02:08:49;8.02;;;3.58;;
68140;SDS011;54941;52.220;104.306;2023-03-26T02:11:19;8.20;;;3.80;;
68140;SDS011;54941;52.220;104.306;2023-03-26T02:13:46;7.47;;;3.80;;
68140;SDS011;54941;52.220;104.306;2023-03-26T02:16:13;6.80;;;3.45;;
68140;SDS011;54941;52.220;104.306;2023-03-26T02:18:41;7.55;;;3.33;;
68140;SDS011;54941;52.220;104.306;2023-03-26T02:21:10;6.78;;;3.10;;
68140;SDS011;54941;52.220;104.306;2023-03-26T02:23:39;7.03;;;3.20;;
68140;SDS011;54941;52.220;104.306;2023-03-26T02:26:08;6.32;;;2.80;;
68140;SDS011;54941;52.220;104.306;2023-03-26T02:28:38;6.43;;;3.10;;
68140;SDS011;54941;52.220;104.306;2023-03-26T02:31:04;8.27;;;3.25;;
68140;SDS011;54941;52.220;104.306;2023-03-26T02:33:31;8.48;;;3.00;;
68140;SDS011;54941;52.220;104.306;2023-03-26T02:35:58;9.25;;;3.60;;
68140;SDS011;54941;52.220;104.306;2023-03-26T02:38:28;7.65;;;3.25;;
68140;SDS011;54941;52.220;104.306;2023-03-26T02:40:56;6.35;;;2.83;;
68140;SDS011;54941;52.220;104.306;2023-03-26T02:43:22;9.77;;;3.97;;
68140;SDS011;54941;52.220;104.306;2023-03-26T02:45:50;9.38;;;3.83;;
68140;SDS011;54941;52.220;104.306;2023-03-26T02:48:17;8.25;;;2.90;;
68140;SDS011;54941;52.220;104.306;2023-03-26T02:50:43;9.02;;;3.35;;
68140;SDS011;54941;52.220;104.306;2023-03-26T02:53:12;13.15;;;5.55;;
68140;SDS011;54941;52.220;104.306;2023-03-26T02:55:38;14.10;;;6.18;;
68140;SDS011;54941;52.220;104.306;2023-03-26T03:00:33;14.85;;;6.40;;
68140;SDS011;54941;52.220;104.306;2023-03-26T03:03:01;11.70;;;5.30;;
68140;SDS011;54941;52.220;104.306;2023-03-26T03:05:28;10.85;;;5.78;;
68140;SDS011;54941;52.220;104.306;2023-03-26T03:07:55;7.75;;;3.75;;
68140;SDS011;54941;52.220;104.306;2023-03-26T03:10:21;6.63;;;3.63;;
68140;SDS011;54941;52.220;104.306;2023-03-26T03:12:48;7.80;;;3.85;;
68140;SDS011;54941;52.220;104.306;2023-03-26T03:15:17;8.75;;;4.03;;
68140;SDS011;54941;52.220;104.306;2023-03-26T03:17:44;8.52;;;3.83;;
68140;SDS011;54941;52.220;104.306;2023-03-26T03:20:12;7.07;;;2.90;;
68140;SDS011;54941;52.220;104.306;2023-03-26T03:22:38;7.72;;;4.20;;
68140;SDS011;54941;52.220;104.306;2023-03-26T03:25:05;11.65;;;4.05;;
68140;SDS011;54941;52.220;104.306;2023-03-26T03:27:32;14.00;;;4.95;;
68140;SDS011;54941;52.220;104.306;2023-03-26T03:29:59;8.57;;;3.90;;
68140;SDS011;54941;52.220;104.306;2023-03-26T03:32:25;12.98;;;5.72;;
68140;SDS011;54941;52.220;104.306;2023-03-26T03:34:51;12.35;;;5.90;;
68140;SDS011;54941;52.220;104.306;2023-03-26T03:37:22;17.13;;;6.72;;
68140;SDS011;54941;52.220;104.306;2023-03-26T03:39:49;21.40;;;7.63;;
68140;SDS011;54941;52.220;104.306;2023-03-26T03:42:15;14.82;;;6.15;;
68140;SDS011;54941;52.220;104.306;2023-03-26T03:44:42;13.88;;;6.07;;
68140;SDS011;54941;52.220;104.306;2023-03-26T03:47:08;15.68;;;6.57;;
68140;SDS011;54941;52.220;104.306;2023-03-26T03:49:35;10.75;;;5.10;;
68140;SDS011;54941;52.220;104.306;2023-03-26T03:52:01;12.13;;;4.63;;
68140;SDS011;54941;52.220;104.306;2023-03-26T03:54:29;8.60;;;4.10;;
68140;SDS011;54941;52.220;104.306;2023-03-26T03:56:55;8.00;;;3.72;;
68140;SDS011;54941;52.220;104.306;2023-03-26T03:59:22;8.73;;;3.40;;
68140;SDS011;54941;52.220;104.306;2023-03-26T04:01:48;5.90;;;3.17;;
68140;SDS011;54941;52.220;104.306;2023-03-26T04:04:15;8.00;;;3.35;;
68140;SDS011;54941;52.220;104.306;2023-03-26T04:06:41;8.52;;;3.63;;
68140;SDS011;54941;52.220;104.306;2023-03-26T04:09:08;7.47;;;3.67;;
68140;SDS011;54941;52.220;104.306;2023-03-26T04:11:37;9.68;;;3.63;;
68140;SDS011;54941;52.220;104.306;2023-03-26T04:14:03;8.65;;;3.85;;
68140;SDS011;54941;52.220;104.306;2023-03-26T04:16:29;11.00;;;4.32;;
68140;SDS011;54941;52.220;104.306;2023-03-26T04:18:56;9.57;;;4.50;;
68140;SDS011;54941;52.220;104.306;2023-03-26T04:21:23;9.80;;;3.92;;
68140;SDS011;54941;52.220;104.306;2023-03-26T04:23:49;9.23;;;3.75;;
68140;SDS011;54941;52.220;104.306;2023-03-26T04:26:16;9.05;;;3.60;;
68140;SDS011;54941;52.220;104.306;2023-03-26T04:28:46;11.57;;;3.75;;
68140;SDS011;54941;52.220;104.306;2023-03-26T04:31:14;9.98;;;3.30;;
68140;SDS011;54941;52.220;104.306;2023-03-26T04:33:43;9.43;;;4.00;;
68140;SDS011;54941;52.220;104.306;2023-03-26T04:36:11;13.82;;;4.32;;
68140;SDS011;54941;52.220;104.306;2023-03-26T04:38:39;12.65;;;3.90;;
68140;SDS011;54941;52.220;104.306;2023-03-26T04:41:09;14.75;;;4.88;;
68140;SDS011;54941;52.220;104.306;2023-03-26T04:43:36;15.32;;;5.68;;
68140;SDS011;54941;52.220;104.306;2023-03-26T04:46:04;20.60;;;4.85;;
68140;SDS011;54941;52.220;104.306;2023-03-26T04:48:31;22.42;;;6.05;;
68140;SDS011;54941;52.220;104.306;2023-03-26T04:50:58;20.02;;;5.00;;
68140;SDS011;54941;52.220;104.306;2023-03-26T04:53:24;13.70;;;4.45;;
68140;SDS011;54941;52.220;104.306;2023-03-26T04:55:52;15.93;;;4.43;;
68140;SDS011;54941;52.220;104.306;2023-03-26T04:58:22;17.08;;;4.45;;
68140;SDS011;54941;52.220;104.306;2023-03-26T05:00:49;15.02;;;4.40;;
68140;SDS011;54941;52.220;104.306;2023-03-26T05:03:17;12.25;;;4.28;;
68140;SDS011;54941;52.220;104.306;2023-03-26T05:05:43;15.35;;;4.35;;
68140;SDS011;54941;52.220;104.306;2023-03-26T05:08:09;10.18;;;4.55;;
68140;SDS011;54941;52.220;104.306;2023-03-26T05:10:36;11.27;;;3.78;;
68140;SDS011;54941;52.220;104.306;2023-03-26T05:13:02;15.20;;;4.03;;
68140;SDS011;54941;52.220;104.306;2023-03-26T05:15:29;15.10;;;4.30;;
68140;SDS011;54941;52.220;104.306;2023-03-26T05:17:55;15.52;;;4.75;;
68140;SDS011;54941;52.220;104.306;2023-03-26T05:20:28;14.05;;;4.85;;
68140;SDS011;54941;52.220;104.306;2023-03-26T05:22:55;13.70;;;3.97;;
68140;SDS011;54941;52.220;104.306;2023-03-26T05:25:21;12.48;;;4.10;;
68140;SDS011;54941;52.220;104.306;2023-03-26T05:27:48;11.30;;;3.78;;
68140;SDS011;54941;52.220;104.306;2023-03-26T05:30:14;10.95;;;3.78;;
68140;SDS011;54941;52.220;104.306;2023-03-26T05:32:42;10.40;;;3.55;;
68140;SDS011;54941;52.220;104.306;2023-03-26T05:35:09;9.35;;;3.50;;
68140;SDS011;54941;52.220;104.306;2023-03-26T05:37:37;9.27;;;3.72;;
68140;SDS011;54941;52.220;104.306;2023-03-26T05:40:05;10.00;;;3.08;;
68140;SDS011;54941;52.220;104.306;2023-03-26T05:42:33;7.38;;;3.00;;
68140;SDS011;54941;52.220;104.306;2023-03-26T05:45:00;6.95;;;2.83;;
68140;SDS011;54941;52.220;104.306;2023-03-26T05:47:26;7.28;;;2.70;;
68140;SDS011;54941;52.220;104.306;2023-03-26T05:49:53;5.95;;;2.35;;
68140;SDS011;54941;52.220;104.306;2023-03-26T05:52:19;8.05;;;2.53;;
68140;SDS011;54941;52.220;104.306;2023-03-26T05:54:47;6.30;;;2.90;;
68140;SDS011;54941;52.220;104.306;2023-03-26T05:57:13;6.38;;;2.42;;
68140;SDS011;54941;52.220;104.306;2023-03-26T05:59:40;6.20;;;2.60;;
68140;SDS011;54941;52.220;104.306;2023-03-26T06:02:06;5.75;;;2.53;;
68140;SDS011;54941;52.220;104.306;2023-03-26T06:04:33;7.63;;;2.75;;
68140;SDS011;54941;52.220;104.306;2023-03-26T06:07:00;4.10;;;1.58;;
68140;SDS011;54941;52.220;104.306;2023-03-26T06:09:27;4.82;;;1.95;;
68140;SDS011;54941;52.220;104.306;2023-03-26T06:11:54;7.80;;;2.28;;
68140;SDS011;54941;52.220;104.306;2023-03-26T06:14:21;5.68;;;2.10;;
68140;SDS011;54941;52.220;104.306;2023-03-26T06:16:47;5.18;;;2.15;;
68140;SDS011;54941;52.220;104.306;2023-03-26T06:19:14;5.70;;;2.28;;
68140;SDS011;54941;52.220;104.306;2023-03-26T06:21:40;3.70;;;1.63;;
68140;SDS011;54941;52.220;104.306;2023-03-26T06:24:06;4.53;;;2.03;;
68140;SDS011;54941;52.220;104.306;2023-03-26T06:26:33;6.43;;;1.90;;
68140;SDS011;54941;52.220;104.306;2023-03-26T06:29:01;4.00;;;1.85;;
68140;SDS011;54941;52.220;104.306;2023-03-26T06:31:27;2.28;;;1.00;;
68140;SDS011;54941;52.220;104.306;2023-03-26T06:33:54;2.92;;;1.10;;
68140;SDS011;54941;52.220;104.306;2023-03-26T06:36:20;3.13;;;1.30;;
68140;SDS011;54941;52.220;104.306;2023-03-26T06:38:47;2.22;;;1.10;;
68140;SDS011;54941;52.220;104.306;2023-03-26T06:41:13;2.72;;;1.10;;
68140;SDS011;54941;52.220;104.306;2023-03-26T06:43:40;3.83;;;1.00;;
68140;SDS011;54941;52.220;104.306;2023-03-26T06:46:08;2.15;;;1.00;;
68140;SDS011;54941;52.220;104.306;2023-03-26T06:48:34;2.78;;;1.40;;
68140;SDS011;54941;52.220;104.306;2023-03-26T06:51:01;2.53;;;1.00;;
68140;SDS011;54941;52.220;104.306;2023-03-26T06:53:27;2.38;;;0.80;;
68140;SDS011;54941;52.220;104.306;2023-03-26T06:55:54;1.92;;;0.82;;
68140;SDS011;54941;52.220;104.306;2023-03-26T06:58:20;2.45;;;0.98;;
68140;SDS011;54941;52.220;104.306;2023-03-26T07:00:46;2.58;;;1.00;;
68140;SDS011;54941;52.220;104.306;2023-03-26T07:03:14;3.58;;;0.90;;
68140;SDS011;54941;52.220;104.306;2023-03-26T07:05:41;1.92;;;0.80;;
68140;SDS011;54941;52.220;104.306;2023-03-26T07:08:07;2.10;;;0.80;;
68140;SDS011;54941;52.220;104.306;2023-03-26T07:10:34;3.90;;;1.08;;
68140;SDS011;54941;52.220;104.306;2023-03-26T07:13:00;3.20;;;1.30;;
68140;SDS011;54941;52.220;104.306;2023-03-26T07:15:27;6.28;;;1.67;;
68140;SDS011;54941;52.220;104.306;2023-03-26T07:17:53;4.18;;;1.08;;
68140;SDS011;54941;52.220;104.306;2023-03-26T07:20:21;3.10;;;1.00;;
68140;SDS011;54941;52.220;104.306;2023-03-26T07:22:48;2.05;;;0.73;;
68140;SDS011;54941;52.220;104.306;2023-03-26T07:25:15;2.95;;;1.05;;
68140;SDS011;54941;52.220;104.306;2023-03-26T07:27:44;1.92;;;0.80;;
68140;SDS011;54941;52.220;104.306;2023-03-26T07:30:18;3.40;;;1.20;;
68140;SDS011;54941;52.220;104.306;2023-03-26T07:32:52;3.17;;;1.10;;
68140;SDS011;54941;52.220;104.306;2023-03-26T07:35:26;3.22;;;1.02;;
68140;SDS011;54941;52.220;104.306;2023-03-26T07:38:03;2.55;;;1.00;;
68140;SDS011;54941;52.220;104.306;2023-03-26T07:40:48;3.75;;;1.10;;
68140;SDS011;54941;52.220;104.306;2023-03-26T07:43:26;3.30;;;1.40;;
68140;SDS011;54941;52.220;104.306;2023-03-26T07:46:05;3.33;;;1.40;;
68140;SDS011;54941;52.220;104.306;2023-03-26T07:48:38;3.70;;;1.20;;
68140;SDS011;54941;52.220;104.306;2023-03-26T07:51:08;3.63;;;1.27;;
68140;SDS011;54941;52.220;104.306;2023-03-26T07:53:35;4.40;;;2.08;;
68140;SDS011;54941;52.220;104.306;2023-03-26T07:56:04;4.05;;;1.27;;
68140;SDS011;54941;52.220;104.306;2023-03-26T07:58:42;3.28;;;1.20;;
68140;SDS011;54941;52.220;104.306;2023-03-26T08:01:34;3.45;;;1.23;;
68140;SDS011;54941;52.220;104.306;2023-03-26T08:04:14;2.80;;;1.40;;
68140;SDS011;54941;52.220;104.306;2023-03-26T08:06:53;2.80;;;1.38;;
68140;SDS011;54941;52.220;104.306;2023-03-26T08:09:27;3.85;;;1.65;;
68140;SDS011;54941;52.220;104.306;2023-03-26T08:12:00;3.72;;;1.75;;
68140;SDS011;54941;52.220;104.306;2023-03-26T08:14:41;5.00;;;1.77;;
68140;SDS011;54941;52.220;104.306;2023-03-26T08:17:20;4.18;;;2.05;;
68140;SDS011;54941;52.220;104.306;2023-03-26T08:19:55;4.25;;;1.73;;
68140;SDS011;54941;52.220;104.306;2023-03-26T08:22:33;4.63;;;1.95;;
68140;SDS011;54941;52.220;104.306;2023-03-26T08:25:09;5.07;;;1.92;;
68140;SDS011;54941;52.220;104.306;2023-03-26T08:27:47;6.18;;;2.15;;
68140;SDS011;54941;52.220;104.306;2023-03-26T08:30:23;4.28;;;1.90;;
68140;SDS011;54941;52.220;104.306;2023-03-26T08:32:52;7.32;;;2.55;;
68140;SDS011;54941;52.220;104.306;2023-03-26T08:35:21;4.70;;;2.20;;
68140;SDS011;54941;52.220;104.306;2023-03-26T08:37:49;7.85;;;2.65;;
68140;SDS011;54941;52.220;104.306;2023-03-26T08:40:17;5.35;;;2.42;;
68140;SDS011;54941;52.220;104.306;2023-03-26T08:42:57;5.95;;;2.30;;
68140;SDS011;54941;52.220;104.306;2023-03-26T08:45:51;5.80;;;2.88;;
68140;SDS011;54941;52.220;104.306;2023-03-26T08:48:42;6.22;;;2.65;;
68140;SDS011;54941;52.220;104.306;2023-03-26T08:54:48;5.32;;;2.30;;
68140;SDS011;54941;52.220;104.306;2023-03-26T08:57:55;4.50;;;2.10;;
68140;SDS011;54941;52.220;104.306;2023-03-26T09:00:54;5.28;;;1.88;;
68140;SDS011;54941;52.220;104.306;2023-03-26T09:06:56;6.78;;;2.80;;
68140;SDS011;54941;52.220;104.306;2023-03-26T09:09:46;5.20;;;2.35;;
68140;SDS011;54941;52.220;104.306;2023-03-26T09:12:42;6.80;;;2.70;;
68140;SDS011;54941;52.220;104.306;2023-03-26T09:15:33;6.57;;;2.28;;
68140;SDS011;54941;52.220;104.306;2023-03-26T09:21:51;6.90;;;2.80;;
68140;SDS011;54941;52.220;104.306;2023-03-26T09:24:45;6.28;;;2.33;;
68140;SDS011;54941;52.220;104.306;2023-03-26T09:27:36;9.55;;;2.92;;
68140;SDS011;54941;52.220;104.306;2023-03-26T09:30:25;6.05;;;2.80;;
68140;SDS011;54941;52.220;104.306;2023-03-26T09:36:07;5.38;;;2.60;;
68140;SDS011;54941;52.220;104.306;2023-03-26T09:38:44;6.30;;;2.28;;
68140;SDS011;54941;52.220;104.306;2023-03-26T09:41:20;8.27;;;2.60;;
68140;SDS011;54941;52.220;104.306;2023-03-26T09:47:02;6.15;;;2.50;;
68140;SDS011;54941;52.220;104.306;2023-03-26T09:49:50;5.97;;;2.40;;
68140;SDS011;54941;52.220;104.306;2023-03-26T09:52:30;7.47;;;2.58;;
68140;SDS011;54941;52.220;104.306;2023-03-26T09:55:22;6.65;;;2.60;;
68140;SDS011;54941;52.220;104.306;2023-03-26T09:58:20;5.57;;;2.35;;
68140;SDS011;54941;52.220;104.306;2023-03-26T10:01:12;7.07;;;2.20;;
68140;SDS011;54941;52.220;104.306;2023-03-26T10:03:50;4.72;;;2.30;;
68140;SDS011;54941;52.220;104.306;2023-03-26T10:06:29;4.68;;;2.20;;
68140;SDS011;54941;52.220;104.306;2023-03-26T10:09:22;5.75;;;2.85;;
68140;SDS011;54941;52.220;104.306;2023-03-26T10:12:11;5.10;;;2.03;;
68140;SDS011;54941;52.220;104.306;2023-03-26T10:14:47;5.38;;;1.67;;
68140;SDS011;54941;52.220;104.306;2023-03-26T10:17:34;4.22;;;1.70;;
68140;SDS011;54941;52.220;104.306;2023-03-26T10:20:30;4.15;;;1.73;;
68140;SDS011;54941;52.220;104.306;2023-03-26T10:23:13;5.00;;;1.50;;
68140;SDS011;54941;52.220;104.306;2023-03-26T10:25:57;5.38;;;1.60;;
68140;SDS011;54941;52.220;104.306;2023-03-26T10:28:38;3.28;;;1.83;;
68140;SDS011;54941;52.220;104.306;2023-03-26T10:34:10;7.13;;;2.00;;
68140;SDS011;54941;52.220;104.306;2023-03-26T10:36:45;6.18;;;2.42;;
68140;SDS011;54941;52.220;104.306;2023-03-26T10:39:28;7.80;;;3.60;;
68140;SDS011;54941;52.220;104.306;2023-03-26T10:42:06;5.15;;;2.33;;
68140;SDS011;54941;52.220;104.306;2023-03-26T10:45:02;5.00;;;2.13;;
68140;SDS011;54941;52.220;104.306;2023-03-26T10:47:53;5.18;;;2.38;;
68140;SDS011;54941;52.220;104.306;2023-03-26T10:50:28;5.63;;;2.17;;
68140;SDS011;54941;52.220;104.306;2023-03-26T10:53:07;10.18;;;3.53;;
68140;SDS011;54941;52.220;104.306;2023-03-26T10:58:10;12.50;;;4.68;;
68140;SDS011;54941;52.220;104.306;2023-03-26T11:00:42;8.50;;;3.00;;
68140;SDS011;54941;52.220;104.306;2023-03-26T11:06:08;5.15;;;2.13;;
68140;SDS011;54941;52.220;104.306;2023-03-26T11:11:23;6.30;;;2.83;;
68140;SDS011;54941;52.220;104.306;2023-03-26T11:13:57;11.48;;;3.97;;
68140;SDS011;54941;52.220;104.306;2023-03-26T11:16:32;8.77;;;3.17;;
68140;SDS011;54941;52.220;104.306;2023-03-26T11:19:11;8.43;;;3.40;;
68140;SDS011;54941;52.220;104.306;2023-03-26T11:21:50;7.40;;;3.28;;
68140;SDS011;54941;52.220;104.306;2023-03-26T11:24:34;14.73;;;5.05;;
68140;SDS011;54941;52.220;104.306;2023-03-26T11:27:32;6.15;;;2.90;;
68140;SDS011;54941;52.220;104.306;2023-03-26T11:30:17;4.80;;;2.33;;
68140;SDS011;54941;52.220;104.306;2023-03-26T11:32:53;5.72;;;2.50;;
68140;SDS011;54941;52.220;104.306;2023-03-26T11:35:24;18.00;;;7.22;;
68140;SDS011;54941;52.220;104.306;2023-03-26T11:37:54;7.40;;;2.72;;
68140;SDS011;54941;52.220;104.306;2023-03-26T11:40:24;6.13;;;2.50;;
68140;SDS011;54941;52.220;104.306;2023-03-26T11:42:58;7.30;;;2.92;;
68140;SDS011;54941;52.220;104.306;2023-03-26T11:47:55;6.28;;;2.60;;
68140;SDS011;54941;52.220;104.306;2023-03-26T11:50:28;6.15;;;2.65;;
68140;SDS011;54941;52.220;104.306;2023-03-26T11:53:01;7.38;;;3.88;;
68140;SDS011;54941;52.220;104.306;2023-03-26T11:55:39;7.97;;;3.58;;
68140;SDS011;54941;52.220;104.306;2023-03-26T11:58:19;10.75;;;3.42;;
68140;SDS011;54941;52.220;104.306;2023-03-26T12:00:49;7.75;;;3.28;;
68140;SDS011;54941;52.220;104.306;2023-03-26T12:03:19;7.97;;;3.15;;
68140;SDS011;54941;52.220;104.306;2023-03-26T12:05:46;10.15;;;3.47;;
68140;SDS011;54941;52.220;104.306;2023-03-26T12:08:16;7.80;;;3.97;;
68140;SDS011;54941;52.220;104.306;2023-03-26T12:10:48;7.55;;;3.58;;
68140;SDS011;54941;52.220;104.306;2023-03-26T12:13:28;8.45;;;3.45;;
68140;SDS011;54941;52.220;104.306;2023-03-26T12:16:05;9.00;;;3.70;;
68140;SDS011;54941;52.220;104.306;2023-03-26T12:18:37;9.27;;;4.60;;
68140;SDS011;54941;52.220;104.306;2023-03-26T12:21:05;9.48;;;4.32;;
68140;SDS011;54941;52.220;104.306;2023-03-26T12:23:37;6.85;;;3.28;;
68140;SDS011;54941;52.220;104.306;2023-03-26T12:26:29;7.47;;;3.53;;
68140;SDS011;54941;52.220;104.306;2023-03-26T12:29:04;9.90;;;4.88;;
68140;SDS011;54941;52.220;104.306;2023-03-26T12:31:45;10.70;;;4.97;;
68140;SDS011;54941;52.220;104.306;2023-03-26T12:34:17;7.53;;;3.35;;
68140;SDS011;54941;52.220;104.306;2023-03-26T12:36:48;8.40;;;3.40;;
68140;SDS011;54941;52.220;104.306;2023-03-26T12:42:22;5.13;;;2.30;;
68140;SDS011;54941;52.220;104.306;2023-03-26T12:44:54;8.13;;;4.30;;
68140;SDS011;54941;52.220;104.306;2023-03-26T12:47:24;8.05;;;3.35;;
68140;SDS011;54941;52.220;104.306;2023-03-26T12:49:55;8.15;;;3.83;;
68140;SDS011;54941;52.220;104.306;2023-03-26T12:52:32;8.30;;;4.30;;
68140;SDS011;54941;52.220;104.306;2023-03-26T12:55:20;7.50;;;3.55;;
68140;SDS011;54941;52.220;104.306;2023-03-26T12:58:04;8.60;;;3.65;;
68140;SDS011;54941;52.220;104.306;2023-03-26T13:00:47;7.45;;;3.78;;
68140;SDS011;54941;52.220;104.306;2023-03-26T13:03:28;11.95;;;5.75;;
68140;SDS011;54941;52.220;104.306;2023-03-26T13:06:06;9.77;;;4.70;;
68140;SDS011;54941;52.220;104.306;2023-03-26T13:08:49;11.35;;;4.88;;
68140;SDS011;54941;52.220;104.306;2023-03-26T13:11:36;7.03;;;3.35;;
68140;SDS011;54941;52.220;104.306;2023-03-26T13:17:33;8.68;;;3.90;;
68140;SDS011;54941;52.220;104.306;2023-03-26T13:20:07;7.25;;;3.58;;
68140;SDS011;54941;52.220;104.306;2023-03-26T13:22:43;7.80;;;3.60;;
68140;SDS011;54941;52.220;104.306;2023-03-26T13:25:22;7.95;;;3.58;;
68140;SDS011;54941;52.220;104.306;2023-03-26T13:27:58;9.90;;;4.15;;
68140;SDS011;54941;52.220;104.306;2023-03-26T13:30:39;8.40;;;3.45;;
68140;SDS011;54941;52.220;104.306;2023-03-26T13:33:22;11.68;;;4.60;;
68140;SDS011;54941;52.220;104.306;2023-03-26T13:35:55;8.30;;;3.85;;
68140;SDS011;54941;52.220;104.306;2023-03-26T13:38:30;8.23;;;3.58;;
68140;SDS011;54941;52.220;104.306;2023-03-26T13:41:05;8.88;;;3.95;;
68140;SDS011;54941;52.220;104.306;2023-03-26T13:43:42;10.35;;;4.25;;
68140;SDS011;54941;52.220;104.306;2023-03-26T13:46:19;11.50;;;5.05;;
68140;SDS011;54941;52.220;104.306;2023-03-26T13:48:53;8.02;;;4.40;;
68140;SDS011;54941;52.220;104.306;2023-03-26T13:51:26;10.18;;;5.43;;
68140;SDS011;54941;52.220;104.306;2023-03-26T13:54:08;10.45;;;4.55;;
68140;SDS011;54941;52.220;104.306;2023-03-26T13:56:42;8.90;;;3.90;;
68140;SDS011;54941;52.220;104.306;2023-03-26T13:59:13;9.57;;;3.83;;
68140;SDS011;54941;52.220;104.306;2023-03-26T14:01:45;7.93;;;3.72;;
68140;SDS011;54941;52.220;104.306;2023-03-26T14:04:17;9.02;;;4.13;;
68140;SDS011;54941;52.220;104.306;2023-03-26T14:06:48;7.40;;;3.47;;
68140;SDS011;54941;52.220;104.306;2023-03-26T14:09:20;8.80;;;4.05;;
68140;SDS011;54941;52.220;104.306;2023-03-26T14:11:56;8.98;;;4.07;;
68140;SDS011;54941;52.220;104.306;2023-03-26T14:14:33;14.82;;;6.47;;
68140;SDS011;54941;52.220;104.306;2023-03-26T14:17:10;12.75;;;6.95;;
68140;SDS011;54941;52.220;104.306;2023-03-26T14:19:50;7.15;;;3.50;;
68140;SDS011;54941;52.220;104.306;2023-03-26T14:22:39;7.57;;;4.03;;
68140;SDS011;54941;52.220;104.306;2023-03-26T14:25:24;9.27;;;4.53;;
68140;SDS011;54941;52.220;104.306;2023-03-26T14:28:02;6.38;;;3.35;;
68140;SDS011;54941;52.220;104.306;2023-03-26T14:30:52;7.68;;;3.38;;
68140;SDS011;54941;52.220;104.306;2023-03-26T14:36:27;7.22;;;3.50;;
68140;SDS011;54941;52.220;104.306;2023-03-26T14:39:28;7.28;;;3.95;;
68140;SDS011;54941;52.220;104.306;2023-03-26T14:42:07;7.68;;;3.38;;
68140;SDS011;54941;52.220;104.306;2023-03-26T14:44:51;6.00;;;2.90;;
68140;SDS011;54941;52.220;104.306;2023-03-26T14:47:39;11.02;;;2.90;;
68140;SDS011;54941;52.220;104.306;2023-03-26T14:50:35;7.55;;;3.38;;
68140;SDS011;54941;52.220;104.306;2023-03-26T14:53:20;8.57;;;3.85;;
68140;SDS011;54941;52.220;104.306;2023-03-26T14:58:59;7.82;;;4.00;;
68140;SDS011;54941;52.220;104.306;2023-03-26T15:01:52;7.97;;;3.50;;
68140;SDS011;54941;52.220;104.306;2023-03-26T15:04:55;8.68;;;2.88;;
68140;SDS011;54941;52.220;104.306;2023-03-26T15:07:51;7.00;;;2.83;;
68140;SDS011;54941;52.220;104.306;2023-03-26T15:13:54;5.50;;;2.45;;
68140;SDS011;54941;52.220;104.306;2023-03-26T15:16:42;7.03;;;2.70;;
68140;SDS011;54941;52.220;104.306;2023-03-26T15:19:44;5.50;;;2.40;;
68140;SDS011;54941;52.220;104.306;2023-03-26T15:29:10;5.60;;;2.10;;
68140;SDS011;54941;52.220;104.306;2023-03-26T15:35:02;7.68;;;2.78;;
68140;SDS011;54941;52.220;104.306;2023-03-26T15:38:15;8.93;;;3.38;;
68140;SDS011;54941;52.220;104.306;2023-03-26T15:41:00;5.18;;;2.88;;
68140;SDS011;54941;52.220;104.306;2023-03-26T15:46:45;6.80;;;2.60;;
68140;SDS011;54941;52.220;104.306;2023-03-26T15:49:22;6.30;;;2.92;;
68140;SDS011;54941;52.220;104.306;2023-03-26T15:52:04;6.75;;;2.78;;
68140;SDS011;54941;52.220;104.306;2023-03-26T15:54:44;6.72;;;2.45;;
68140;SDS011;54941;52.220;104.306;2023-03-26T15:57:16;5.55;;;2.58;;
68140;SDS011;54941;52.220;104.306;2023-03-26T15:59:56;5.25;;;2.47;;